Elkland, Missouri
Current Conditions -  °F | °C
As of 7:52 PM on Saturday 20 Dec 2014 (Local Time) from KSGF Reporting Station
Overcast Overcast  
Wind Chill: 36°   Ceiling: 2100
Heat Index: 41°   Visibility: 10mi
Dew Point: 36°   Wind: 7mph
Humidity: 82%   Direction: 190°S
Pressure: 30.18"   Gusts: NA
Location:  37.44°N, 93.03°W
Report Text: KSGF 210152Z 19006KT 10SM OVC021 05/02 A3018 RMK AO2 SLP226 T00500022
Loading
Personal Weather Stations






























Interactive Weather Map New forecast layout! Learn more

10-Day Weather Forecast

Advertisements
Track Severe Weather on mobile